Terminal Aerodrome Forecast
Issued by NWS Buffalo, NY

Home | Current Version | Previous Version | Text Only | Print | Product List | Glossary On
Versions: 1 2 3 4 5 6 7 8 9 10 11 12 13 14 15 16 17 18 19 20 21 22 23 24 25 26 27 28
000
FTUS41 KBUF 261729
TAFART
TAF
KART 261729Z 2618/2718 23008KT P6SM OVC035
     FM262100 22008KT P6SM OVC080
     FM270200 19004KT P6SM OVC090
     FM270600 VRB03KT P6SM VCSH OVC060
      TEMPO 2707/2711 -SHRA BKN040
     FM271400 22010KT P6SM VCSH BKN035=

USA.gov is the U.S. government's official web portal to all federal, state and local government web resources and services.